Time;durP1;ratioP1;P1;durP2;ratioP2;P2;SDS_P1;SDS_P2;PMS_P1;PMS_P2;Temp;Humidity;BMP_temperature;BMP_pressure;BME280_temperature;BME280_humidity;BME280_pressure;Samples;Min_cycle;Max_cycle;Signal;HPM_P1;HPM_P2
2021/12/09 00:01:00;;;;;;;22.75;18.42;;;;;;;;;;4986052;28;20482;-72
2021/12/09 00:03:28;;;;;;;22.50;19.00;;;;;;;;;;4985962;28;20030;-72
2021/12/09 00:05:56;;;;;;;23.25;19.02;;;;;;;;;;4984328;28;20042;-73
2021/12/09 00:08:24;;;;;;;22.83;18.13;;;;;;;;;;4986813;28;20038;-73
2021/12/09 00:10:50;;;;;;;28.25;22.27;;;;;;;;;;4974094;28;20030;-73
2021/12/09 00:13:15;;;;;;;33.25;20.25;;;;;;;;;;4984905;28;20038;-72
2021/12/09 00:15:41;;;;;;;36.75;21.83;;;;;;;;;;4986940;28;20052;-73
2021/12/09 00:18:07;;;;;;;36.88;24.30;;;;;;;;;;5000046;28;20389;-73
2021/12/09 00:20:32;;;;;;;32.67;21.40;;;;;;;;;;4994067;28;20053;-73
2021/12/09 00:22:58;;;;;;;23.83;18.52;;;;;;;;;;4989773;28;20053;-73
2021/12/09 00:25:24;;;;;;;28.05;19.88;;;;;;;;;;4985480;28;20038;-73
2021/12/09 00:27:51;;;;;;;25.67;19.98;;;;;;;;;;4998332;28;20128;-73
2021/12/09 00:30:18;;;;;;;22.45;17.98;;;;;;;;;;4995125;28;20040;-73
2021/12/09 00:32:47;;;;;;;24.13;18.13;;;;;;;;;;4989666;28;20038;-73
2021/12/09 00:35:15;;;;;;;24.50;17.50;;;;;;;;;;4991187;28;20065;-72
2021/12/09 00:37:52;;;;;;;26.30;18.08;;;;;;;;;;4995954;28;20039;-73
2021/12/09 00:40:18;;;;;;;23.33;17.33;;;;;;;;;;4995694;28;20295;-73
2021/12/09 00:42:44;;;;;;;21.05;16.05;;;;;;;;;;4971032;28;20086;-72
2021/12/09 00:45:09;;;;;;;26.17;19.77;;;;;;;;;;4997934;28;20670;-73
2021/12/09 00:47:35;;;;;;;28.05;20.13;;;;;;;;;;4998460;28;20437;-73
2021/12/09 00:50:02;;;;;;;33.33;21.73;;;;;;;;;;4978142;28;20046;-73
2021/12/09 00:52:28;;;;;;;31.98;22.90;;;;;;;;;;4991994;28;20470;-73
2021/12/09 00:54:55;;;;;;;33.78;22.33;;;;;;;;;;4998112;28;20128;-73
2021/12/09 00:57:22;;;;;;;34.65;19.77;;;;;;;;;;4986521;28;20045;-72
2021/12/09 00:59:48;;;;;;;22.58;17.17;;;;;;;;;;4990132;28;20044;-72
2021/12/09 01:02:14;;;;;;;24.83;17.30;;;;;;;;;;4989570;28;20062;-73
2021/12/09 01:04:41;;;;;;;27.23;16.42;;;;;;;;;;4974697;28;20050;-73
2021/12/09 01:07:07;;;;;;;21.33;14.32;;;;;;;;;;4989448;28;20565;-73
2021/12/09 01:09:33;;;;;;;22.40;15.75;;;;;;;;;;4987573;28;20038;-73
2021/12/09 01:11:59;;;;;;;17.52;13.88;;;;;;;;;;4983028;28;20050;-73
2021/12/09 01:14:25;;;;;;;16.20;14.40;;;;;;;;;;4975278;28;20038;-72
2021/12/09 01:16:50;;;;;;;17.60;14.50;;;;;;;;;;4988505;28;20072;-73
2021/12/09 01:19:17;;;;;;;20.00;15.70;;;;;;;;;;4990612;28;20038;-73
2021/12/09 01:21:44;;;;;;;21.35;13.85;;;;;;;;;;4990503;28;20038;-73
2021/12/09 01:24:09;;;;;;;23.33;16.25;;;;;;;;;;4983577;28;20046;-73
2021/12/09 01:26:36;;;;;;;18.52;14.10;;;;;;;;;;4985034;28;20065;-73
2021/12/09 01:29:09;;;;;;;18.80;14.60;;;;;;;;;;4973037;28;20038;-73
2021/12/09 01:31:38;;;;;;;17.45;13.80;;;;;;;;;;4984682;28;20049;-73
2021/12/09 01:34:04;;;;;;;15.05;13.10;;;;;;;;;;4987437;28;20046;-72
2021/12/09 01:36:32;;;;;;;14.77;12.98;;;;;;;;;;4984016;28;20042;-73
2021/12/09 01:38:58;;;;;;;16.65;13.85;;;;;;;;;;4983662;28;20379;-72
2021/12/09 01:41:24;;;;;;;18.23;14.10;;;;;;;;;;4977930;28;20057;-72
2021/12/09 01:43:50;;;;;;;19.98;13.77;;;;;;;;;;4998501;28;20409;-72
2021/12/09 01:46:18;;;;;;;20.58;15.50;;;;;;;;;;4971811;28;20122;-72
2021/12/09 01:48:46;;;;;;;15.00;13.13;;;;;;;;;;4975350;28;20506;-72
2021/12/09 01:51:11;;;;;;;17.48;13.13;;;;;;;;;;4981238;28;20041;-72
2021/12/09 01:53:38;;;;;;;15.27;12.75;;;;;;;;;;4987861;28;20039;-72
2021/12/09 01:56:09;;;;;;;19.63;13.75;;;;;;;;;;4981191;28;20047;-72
2021/12/09 01:58:36;;;;;;;19.67;15.20;;;;;;;;;;4966062;28;20387;-72
2021/12/09 02:01:03;;;;;;;25.58;15.65;;;;;;;;;;4988453;28;20061;-72
2021/12/09 02:03:29;;;;;;;14.70;13.27;;;;;;;;;;4987112;28;20056;-72
2021/12/09 02:05:55;;;;;;;22.65;15.23;;;;;;;;;;4979642;28;20501;-72
2021/12/09 02:08:21;;;;;;;20.38;14.85;;;;;;;;;;4988359;28;20565;-73
2021/12/09 02:10:48;;;;;;;17.80;15.40;;;;;;;;;;4987776;28;20045;-72
2021/12/09 02:13:15;;;;;;;19.90;16.50;;;;;;;;;;4972889;28;20483;-72
2021/12/09 02:15:41;;;;;;;18.02;15.25;;;;;;;;;;4977198;28;20493;-72
2021/12/09 02:18:10;;;;;;;17.67;15.88;;;;;;;;;;4986337;28;20034;-73
2021/12/09 02:20:37;;;;;;;18.65;16.65;;;;;;;;;;4976929;28;20138;-73
2021/12/09 02:23:09;;;;;;;18.48;15.25;;;;;;;;;;4985796;28;20041;-73
2021/12/09 02:25:36;;;;;;;21.27;16.10;;;;;;;;;;4985856;28;20045;-73
2021/12/09 02:28:03;;;;;;;22.05;17.20;;;;;;;;;;4988502;28;20034;-73
2021/12/09 02:30:29;;;;;;;20.95;17.20;;;;;;;;;;4989349;28;20041;-73
2021/12/09 02:32:54;;;;;;;23.30;17.02;;;;;;;;;;4974553;28;20050;-73
2021/12/09 02:35:20;;;;;;;19.83;17.05;;;;;;;;;;4983309;28;20114;-73
2021/12/09 02:37:46;;;;;;;26.00;20.75;;;;;;;;;;4989356;28;20494;-73
2021/12/09 02:40:12;;;;;;;22.58;18.73;;;;;;;;;;4981143;28;20039;-73
2021/12/09 02:42:38;;;;;;;23.73;21.15;;;;;;;;;;4985392;28;20039;-73
2021/12/09 02:45:07;;;;;;;19.17;16.85;;;;;;;;;;4990608;28;20034;-73
2021/12/09 02:47:34;;;;;;;26.13;20.80;;;;;;;;;;4985169;28;20046;-73
2021/12/09 02:50:00;;;;;;;30.15;22.65;;;;;;;;;;4979430;28;20048;-73
2021/12/09 02:52:27;;;;;;;23.73;19.55;;;;;;;;;;4978336;28;20065;-73
2021/12/09 02:54:53;;;;;;;25.15;18.85;;;;;;;;;;4988574;28;20045;-73
2021/12/09 02:57:19;;;;;;;25.98;20.13;;;;;;;;;;4977788;28;20125;-73
2021/12/09 02:59:45;;;;;;;29.13;22.15;;;;;;;;;;4971159;28;20049;-73
2021/12/09 03:02:11;;;;;;;25.15;19.63;;;;;;;;;;4977491;28;20034;-73
2021/12/09 03:04:37;;;;;;;23.45;18.45;;;;;;;;;;4986640;28;20042;-73
2021/12/09 03:07:09;;;;;;;25.85;20.00;;;;;;;;;;4987104;28;20095;-72
2021/12/09 03:09:36;;;;;;;28.42;21.48;;;;;;;;;;4976831;28;20034;-73
2021/12/09 03:12:05;;;;;;;32.35;22.65;;;;;;;;;;4993943;28;20034;-73
2021/12/09 03:14:32;;;;;;;32.03;23.48;;;;;;;;;;5002852;28;20042;-73
2021/12/09 03:16:57;;;;;;;39.08;26.35;;;;;;;;;;4987512;28;20034;-73
2021/12/09 03:19:23;;;;;;;35.47;27.00;;;;;;;;;;4987189;28;20584;-73
2021/12/09 03:21:49;;;;;;;36.85;24.35;;;;;;;;;;4986972;28;20686;-73
2021/12/09 03:24:18;;;;;;;33.90;24.95;;;;;;;;;;4969959;28;20477;-73
2021/12/09 03:26:56;;;;;;;36.87;25.93;;;;;;;;;;4988853;28;20153;-73
2021/12/09 03:29:24;;;;;;;32.67;24.30;;;;;;;;;;4978115;28;20034;-73
2021/12/09 03:31:52;;;;;;;31.58;21.95;;;;;;;;;;4985500;28;20034;-73
2021/12/09 03:34:19;;;;;;;31.77;21.45;;;;;;;;;;4987005;28;20133;-73
2021/12/09 03:36:48;;;;;;;35.08;20.65;;;;;;;;;;4986591;28;20645;-73
2021/12/09 03:39:17;;;;;;;27.58;21.95;;;;;;;;;;4997451;28;20034;-73
2021/12/09 03:41:48;;;;;;;23.45;19.02;;;;;;;;;;4982872;28;20470;-73
2021/12/09 03:44:14;;;;;;;32.17;20.40;;;;;;;;;;4986818;28;20034;-73
2021/12/09 03:46:40;;;;;;;30.05;19.88;;;;;;;;;;4983839;28;20042;-73
2021/12/09 03:49:06;;;;;;;25.15;18.40;;;;;;;;;;4969759;28;20045;-73
2021/12/09 03:51:35;;;;;;;29.92;20.23;;;;;;;;;;4986692;28;20038;-73
2021/12/09 03:54:05;;;;;;;21.35;17.23;;;;;;;;;;4984179;28;20502;-73
2021/12/09 03:56:31;;;;;;;27.05;18.00;;;;;;;;;;4978614;28;20039;-73
2021/12/09 03:58:57;;;;;;;24.90;18.40;;;;;;;;;;5002367;28;20176;-73
2021/12/09 04:01:22;;;;;;;28.27;19.05;;;;;;;;;;5004090;28;20619;-73
2021/12/09 04:03:48;;;;;;;27.10;19.25;;;;;;;;;;4965569;28;20092;-73
2021/12/09 04:06:14;;;;;;;30.52;18.45;;;;;;;;;;4991120;28;20038;-73
2021/12/09 04:08:40;;;;;;;24.70;17.02;;;;;;;;;;5004502;28;20049;-73
2021/12/09 04:11:06;;;;;;;27.33;17.38;;;;;;;;;;4985695;28;20027;-73
2021/12/09 04:13:34;;;;;;;27.25;14.93;;;;;;;;;;4978629;28;20038;-73
2021/12/09 04:16:01;;;;;;;19.60;16.02;;;;;;;;;;4989787;28;20038;-73
2021/12/09 04:18:27;;;;;;;20.75;15.77;;;;;;;;;;4982866;28;20034;-73
2021/12/09 04:20:53;;;;;;;22.90;16.27;;;;;;;;;;4982549;28;20417;-73
2021/12/09 04:23:19;;;;;;;19.13;15.90;;;;;;;;;;4985207;28;20045;-73
2021/12/09 04:25:44;;;;;;;24.83;16.52;;;;;;;;;;5000724;28;21416;-73
2021/12/09 04:28:10;;;;;;;18.05;15.75;;;;;;;;;;4997896;28;20073;-73
2021/12/09 04:30:36;;;;;;;25.15;15.45;;;;;;;;;;4988078;28;20038;-73
2021/12/09 04:33:01;;;;;;;26.60;16.20;;;;;;;;;;4975438;28;20027;-73
2021/12/09 04:35:27;;;;;;;25.83;15.90;;;;;;;;;;4995138;28;20039;-73
2021/12/09 04:37:52;;;;;;;26.08;15.20;;;;;;;;;;4982991;28;20030;-73
2021/12/09 04:40:18;;;;;;;18.35;14.70;;;;;;;;;;4987574;28;20037;-75
2021/12/09 04:42:44;;;;;;;23.65;14.85;;;;;;;;;;4994898;28;20030;-73
2021/12/09 04:45:11;;;;;;;20.58;15.70;;;;;;;;;;4999899;28;20033;-73
2021/12/09 04:47:38;;;;;;;22.05;16.30;;;;;;;;;;4972943;28;20038;-73
2021/12/09 04:50:05;;;;;;;19.70;16.60;;;;;;;;;;4980022;28;20073;-73
2021/12/09 04:52:31;;;;;;;24.90;15.70;;;;;;;;;;4975797;28;20069;-73
2021/12/09 04:54:58;;;;;;;18.73;15.15;;;;;;;;;;5004975;28;20068;-73
2021/12/09 04:57:24;;;;;;;17.70;15.73;;;;;;;;;;4986088;28;20030;-73
2021/12/09 04:59:51;;;;;;;24.33;16.25;;;;;;;;;;4977198;28;20038;-73
2021/12/09 05:03:18;;;;;;;23.83;16.60;;;;;;;;;;4986836;28;20621;-73
2021/12/09 05:05:12;;;;;;;21.95;17.30;;;;;;;;;;4977594;28;20049;-73
2021/12/09 05:07:38;;;;;;;20.02;16.45;;;;;;;;;;4986852;28;20038;-73
2021/12/09 05:10:04;;;;;;;21.05;14.73;;;;;;;;;;4984393;28;20038;-73
2021/12/09 05:12:30;;;;;;;20.98;14.63;;;;;;;;;;4993559;28;20515;-73
2021/12/09 05:14:56;;;;;;;17.33;14.07;;;;;;;;;;4987064;28;20117;-73
2021/12/09 05:17:22;;;;;;;16.58;14.60;;;;;;;;;;4960800;28;20101;-73
2021/12/09 05:19:48;;;;;;;26.73;15.35;;;;;;;;;;4981385;28;20045;-73
2021/12/09 05:22:14;;;;;;;18.98;15.40;;;;;;;;;;4991167;28;20034;-73
2021/12/09 05:24:40;;;;;;;22.73;16.92;;;;;;;;;;4957022;28;20614;-73
2021/12/09 05:27:08;;;;;;;16.20;14.57;;;;;;;;;;4972883;28;20043;-73
2021/12/09 05:29:42;;;;;;;26.42;15.85;;;;;;;;;;4986205;28;20085;-73
2021/12/09 05:32:13;;;;;;;18.13;14.02;;;;;;;;;;4981362;28;20034;-73
2021/12/09 05:34:48;;;;;;;21.52;14.98;;;;;;;;;;4974763;28;20114;-73
2021/12/09 05:37:22;;;;;;;21.92;15.02;;;;;;;;;;4972992;28;20046;-73
2021/12/09 05:39:52;;;;;;;16.08;14.30;;;;;;;;;;4974829;28;20233;-73
2021/12/09 05:42:19;;;;;;;16.73;14.77;;;;;;;;;;4978211;28;20035;-73
2021/12/09 05:44:46;;;;;;;28.05;16.23;;;;;;;;;;4975838;28;20093;-73
2021/12/09 05:47:12;;;;;;;24.05;15.48;;;;;;;;;;4971266;28;20042;-73
2021/12/09 05:49:42;;;;;;;18.13;14.77;;;;;;;;;;4995753;28;20026;-73
2021/12/09 05:52:08;;;;;;;29.75;15.70;;;;;;;;;;4992131;28;20030;-73
2021/12/09 05:54:35;;;;;;;17.65;14.45;;;;;;;;;;4986725;28;20038;-73
2021/12/09 05:57:00;;;;;;;25.10;15.20;;;;;;;;;;4978088;28;20068;-73
2021/12/09 05:59:26;;;;;;;17.15;14.98;;;;;;;;;;4966394;28;20035;-73
2021/12/09 06:01:52;;;;;;;14.70;13.27;;;;;;;;;;4986429;28;20038;-73
2021/12/09 06:04:18;;;;;;;19.15;13.75;;;;;;;;;;4985307;28;20034;-73
2021/12/09 06:06:44;;;;;;;19.85;13.60;;;;;;;;;;4979341;28;20047;-73
2021/12/09 06:09:11;;;;;;;21.02;12.45;;;;;;;;;;4990480;28;20386;-73
2021/12/09 06:11:39;;;;;;;19.10;13.20;;;;;;;;;;4988938;28;20177;-74
2021/12/09 06:14:06;;;;;;;19.17;13.13;;;;;;;;;;4989809;28;20046;-73
2021/12/09 06:16:33;;;;;;;18.85;12.48;;;;;;;;;;4987986;28;20042;-73
2021/12/09 06:18:59;;;;;;;14.95;12.73;;;;;;;;;;4990479;28;20033;-73
2021/12/09 06:21:27;;;;;;;19.10;13.45;;;;;;;;;;4990082;28;20046;-74
2021/12/09 06:23:57;;;;;;;21.52;14.27;;;;;;;;;;4986042;28;20026;-73
2021/12/09 06:26:23;;;;;;;22.38;14.07;;;;;;;;;;4990733;28;20402;-74
2021/12/09 06:28:49;;;;;;;16.15;13.52;;;;;;;;;;4991112;28;20053;-74
2021/12/09 06:31:15;;;;;;;16.58;13.77;;;;;;;;;;4987776;28;20417;-73
2021/12/09 06:33:41;;;;;;;14.70;13.13;;;;;;;;;;4990492;28;20048;-73
2021/12/09 06:36:06;;;;;;;16.83;13.40;;;;;;;;;;4985844;28;20034;-73
2021/12/09 06:38:33;;;;;;;20.80;13.52;;;;;;;;;;4989201;28;20038;-73
2021/12/09 06:40:59;;;;;;;20.85;13.57;;;;;;;;;;4985084;28;20517;-73
2021/12/09 06:43:25;;;;;;;14.38;12.88;;;;;;;;;;4990662;28;20092;-73
2021/12/09 06:45:54;;;;;;;16.05;14.38;;;;;;;;;;4989694;28;20038;-73
2021/12/09 06:48:20;;;;;;;18.90;16.92;;;;;;;;;;4990203;28;20088;-75
2021/12/09 06:50:46;;;;;;;21.17;16.70;;;;;;;;;;4990034;28;20034;-74
2021/12/09 06:53:14;;;;;;;16.15;14.55;;;;;;;;;;4990834;28;20109;-74
2021/12/09 06:55:41;;;;;;;19.98;14.40;;;;;;;;;;4990726;28;20100;-74
2021/12/09 06:58:06;;;;;;;15.43;13.75;;;;;;;;;;4983033;28;20046;-74
2021/12/09 07:00:34;;;;;;;16.27;13.98;;;;;;;;;;4976857;28;20035;-74
2021/12/09 07:03:00;;;;;;;18.70;14.75;;;;;;;;;;4965420;28;20106;-75
2021/12/09 07:05:27;;;;;;;17.90;15.95;;;;;;;;;;4944329;28;20035;-74
2021/12/09 07:07:53;;;;;;;21.08;15.75;;;;;;;;;;4967616;28;20035;-74
2021/12/09 07:10:20;;;;;;;29.98;16.63;;;;;;;;;;4961748;28;20414;-74
2021/12/09 07:12:47;;;;;;;21.85;18.33;;;;;;;;;;4951699;28;20039;-74
2021/12/09 07:15:14;;;;;;;30.85;20.33;;;;;;;;;;4957356;28;20031;-74
2021/12/09 07:17:39;;;;;;;25.05;16.52;;;;;;;;;;4964448;28;20050;-74
2021/12/09 07:20:09;;;;;;;22.60;16.38;;;;;;;;;;4951473;28;20043;-74
2021/12/09 07:22:34;;;;;;;23.08;16.05;;;;;;;;;;4952089;28;20308;-74
2021/12/09 07:25:01;;;;;;;24.65;16.20;;;;;;;;;;4948721;28;20505;-74
2021/12/09 07:27:26;;;;;;;21.13;16.33;;;;;;;;;;4956610;28;20043;-74
2021/12/09 07:29:52;;;;;;;23.70;15.32;;;;;;;;;;4951642;28;20058;-74
2021/12/09 07:32:18;;;;;;;18.83;15.38;;;;;;;;;;4966438;28;20038;-75
2021/12/09 07:34:43;;;;;;;21.73;15.38;;;;;;;;;;4969703;28;20041;-74
2021/12/09 07:37:10;;;;;;;16.75;14.43;;;;;;;;;;4956274;28;20046;-74
2021/12/09 07:39:36;;;;;;;18.05;14.85;;;;;;;;;;4953726;28;20046;-74
2021/12/09 07:42:02;;;;;;;22.23;16.27;;;;;;;;;;4967581;28;20372;-74
2021/12/09 07:44:30;;;;;;;21.60;15.52;;;;;;;;;;4958932;28;20505;-74
2021/12/09 07:46:56;;;;;;;19.05;15.73;;;;;;;;;;4951159;28;20043;-74
2021/12/09 07:49:23;;;;;;;16.77;14.10;;;;;;;;;;4954999;28;20053;-74
2021/12/09 07:51:50;;;;;;;16.80;15.20;;;;;;;;;;4963379;28;20038;-74
2021/12/09 07:54:16;;;;;;;22.92;14.80;;;;;;;;;;4954691;28;20126;-74
2021/12/09 07:56:42;;;;;;;16.20;14.68;;;;;;;;;;4954762;28;20062;-74
2021/12/09 07:59:08;;;;;;;16.52;13.80;;;;;;;;;;4983805;28;20030;-74
2021/12/09 08:01:35;;;;;;;15.50;14.07;;;;;;;;;;4982353;28;20034;-74
2021/12/09 08:04:01;;;;;;;15.20;13.80;;;;;;;;;;4985569;28;20034;-74
2021/12/09 08:06:27;;;;;;;15.30;13.77;;;;;;;;;;4970525;28;20771;-74
2021/12/09 08:08:53;;;;;;;15.63;14.07;;;;;;;;;;4987789;28;20033;-74
2021/12/09 08:11:19;;;;;;;18.23;13.10;;;;;;;;;;4974877;28;20093;-74
2021/12/09 08:13:44;;;;;;;17.88;13.73;;;;;;;;;;4980815;28;20360;-74
2021/12/09 08:16:10;;;;;;;17.10;13.63;;;;;;;;;;4986126;28;20041;-75
2021/12/09 08:18:53;;;;;;;16.33;14.75;;;;;;;;;;4982827;28;20053;-75
2021/12/09 08:21:21;;;;;;;14.85;12.90;;;;;;;;;;4970242;28;20058;-75
2021/12/09 08:23:46;;;;;;;16.30;14.30;;;;;;;;;;4982111;28;20026;-75
2021/12/09 08:26:13;;;;;;;15.38;13.95;;;;;;;;;;4970148;28;20482;-74
2021/12/09 08:28:38;;;;;;;15.38;13.77;;;;;;;;;;4980700;28;20117;-74
2021/12/09 08:31:04;;;;;;;18.13;13.32;;;;;;;;;;4991575;28;20121;-76
2021/12/09 08:33:30;;;;;;;17.20;13.90;;;;;;;;;;4978953;28;20035;-74
2021/12/09 08:35:55;;;;;;;14.77;12.38;;;;;;;;;;4985016;28;20038;-75
2021/12/09 08:38:24;;;;;;;16.55;12.88;;;;;;;;;;4984307;28;20038;-75
2021/12/09 08:40:52;;;;;;;18.15;14.30;;;;;;;;;;4969784;28;20042;-75
2021/12/09 08:43:19;;;;;;;15.50;14.10;;;;;;;;;;4969949;28;20030;-75
2021/12/09 08:45:46;;;;;;;16.67;14.00;;;;;;;;;;4987226;28;20046;-75
2021/12/09 08:48:12;;;;;;;17.20;14.02;;;;;;;;;;4974190;28;20038;-75
2021/12/09 08:50:39;;;;;;;16.20;14.55;;;;;;;;;;4969605;28;20445;-75
2021/12/09 08:53:08;;;;;;;15.20;13.82;;;;;;;;;;4979170;28;20035;-75
2021/12/09 08:55:34;;;;;;;16.27;14.68;;;;;;;;;;4995209;28;20033;-75
2021/12/09 08:58:00;;;;;;;15.50;13.82;;;;;;;;;;4992133;28;20035;-75
2021/12/09 09:00:28;;;;;;;14.55;13.15;;;;;;;;;;4991777;28;20042;-75
2021/12/09 09:02:54;;;;;;;15.55;13.88;;;;;;;;;;4985499;28;20363;-75
2021/12/09 09:05:20;;;;;;;15.23;13.63;;;;;;;;;;4986320;28;20513;-74
2021/12/09 09:07:49;;;;;;;17.40;15.68;;;;;;;;;;4973295;28;20042;-75
2021/12/09 09:10:19;;;;;;;15.60;14.13;;;;;;;;;;4973372;28;20405;-74
2021/12/09 09:12:45;;;;;;;15.07;13.25;;;;;;;;;;4989155;28;20026;-75
2021/12/09 09:15:13;;;;;;;15.43;13.82;;;;;;;;;;4973885;28;20034;-75
2021/12/09 09:17:39;;;;;;;14.48;13.07;;;;;;;;;;4955904;28;20061;-74
2021/12/09 09:20:08;;;;;;;16.92;13.30;;;;;;;;;;4988589;28;20493;-75
2021/12/09 09:22:34;;;;;;;17.35;13.80;;;;;;;;;;4991447;28;20051;-75
2021/12/09 09:25:00;;;;;;;15.57;13.43;;;;;;;;;;4973159;28;20049;-74
2021/12/09 09:27:25;;;;;;;15.05;13.43;;;;;;;;;;4977895;28;20107;-75
2021/12/09 09:29:51;;;;;;;17.85;14.02;;;;;;;;;;4995028;28;20046;-75
2021/12/09 09:32:17;;;;;;;14.68;12.80;;;;;;;;;;4985310;28;20125;-75
2021/12/09 09:34:42;;;;;;;14.90;13.45;;;;;;;;;;4982318;28;20035;-75
2021/12/09 09:37:08;;;;;;;15.32;13.55;;;;;;;;;;4976690;28;20417;-75
2021/12/09 09:39:35;;;;;;;15.40;13.68;;;;;;;;;;4995911;28;20054;-75
2021/12/09 09:44:48;;;;;;;15.57;13.88;;;;;;;;;;4971729;28;20046;-76
2021/12/09 09:47:15;;;;;;;16.60;13.40;;;;;;;;;;4986445;28;20026;-74
2021/12/09 09:49:42;;;;;;;16.02;13.77;;;;;;;;;;4980573;28;20541;-76
2021/12/09 09:52:09;;;;;;;14.93;13.50;;;;;;;;;;4972029;28;20371;-75
2021/12/09 09:54:37;;;;;;;14.88;13.25;;;;;;;;;;4987593;28;20052;-75
2021/12/09 09:57:05;;;;;;;14.45;13.05;;;;;;;;;;4978465;28;20474;-74
2021/12/09 09:59:31;;;;;;;15.10;12.73;;;;;;;;;;4972150;28;20038;-75
2021/12/09 10:01:56;;;;;;;13.95;12.90;;;;;;;;;;4979657;28;20195;-75
2021/12/09 10:04:36;;;;;;;16.95;14.10;;;;;;;;;;4988724;28;20103;-75
2021/12/09 10:07:04;;;;;;;14.18;12.93;;;;;;;;;;4974732;28;20509;-75
2021/12/09 10:09:30;;;;;;;14.32;12.98;;;;;;;;;;4963785;28;20112;-75
2021/12/09 10:11:56;;;;;;;14.73;13.40;;;;;;;;;;4970885;28;20490;-75
2021/12/09 10:14:26;;;;;;;17.27;13.57;;;;;;;;;;4973559;28;20771;-75
2021/12/09 10:17:08;;;;;;;14.32;12.90;;;;;;;;;;4984250;28;20035;-75
2021/12/09 10:19:36;;;;;;;14.30;12.82;;;;;;;;;;4983145;28;20070;-75
2021/12/09 10:22:05;;;;;;;14.52;12.68;;;;;;;;;;4987664;28;20113;-75
2021/12/09 10:24:32;;;;;;;15.88;13.27;;;;;;;;;;4976895;28;20043;-75
2021/12/09 10:26:58;;;;;;;14.05;12.73;;;;;;;;;;4971543;28;20030;-75
2021/12/09 10:29:37;;;;;;;14.63;13.10;;;;;;;;;;4975723;28;20037;-75
2021/12/09 10:32:06;;;;;;;14.10;12.93;;;;;;;;;;4982238;28;20049;-75
2021/12/09 10:34:36;;;;;;;;;;;;;;;;;;4982259;28;20046;-75
2021/12/09 10:37:21;;;;;;;15.23;13.65;;;;;;;;;;4973256;28;20533;-75
2021/12/09 10:39:58;;;;;;;14.38;13.02;;;;;;;;;;4988049;28;20400;-74
2021/12/09 10:42:28;;;;;;;14.65;13.30;;;;;;;;;;4977531;28;20548;-75
2021/12/09 10:45:05;;;;;;;13.25;12.02;;;;;;;;;;4983914;28;20045;-75
2021/12/09 10:52:56;;;;;;;13.40;12.15;;;;;;;;;;4971027;28;20038;-75
2021/12/09 10:55:41;;;;;;;16.50;12.60;;;;;;;;;;4974191;28;20034;-75
2021/12/09 10:58:09;;;;;;;14.57;13.02;;;;;;;;;;4985274;28;20402;-75
2021/12/09 11:00:52;;;;;;;14.00;12.70;;;;;;;;;;4973728;28;20109;-75
2021/12/09 11:03:35;;;;;;;14.23;12.95;;;;;;;;;;4985249;28;20093;-75
2021/12/09 11:06:08;;;;;;;16.75;13.25;;;;;;;;;;4979838;28;20050;-75
2021/12/09 11:08:36;;;;;;;16.30;14.20;;;;;;;;;;4970574;28;20042;-75
2021/12/09 11:11:14;;;;;;;15.70;13.82;;;;;;;;;;4977604;28;20038;-75
2021/12/09 11:13:43;;;;;;;13.65;12.30;;;;;;;;;;4980193;28;20035;-75
2021/12/09 11:16:09;;;;;;;13.98;12.68;;;;;;;;;;4970544;28;20094;-75
2021/12/09 11:18:40;;;;;;;13.23;12.10;;;;;;;;;;4969767;28;20038;-75
2021/12/09 11:21:11;;;;;;;14.40;12.90;;;;;;;;;;4975785;28;20038;-75
2021/12/09 11:23:43;;;;;;;14.02;12.63;;;;;;;;;;4981419;28;20030;-75
2021/12/09 11:26:23;;;;;;;13.88;12.57;;;;;;;;;;4964092;28;20042;-75
2021/12/09 11:29:01;;;;;;;14.93;13.40;;;;;;;;;;4974599;28;20031;-75
2021/12/09 11:31:32;;;;;;;14.02;12.65;;;;;;;;;;4984871;28;20030;-75
2021/12/09 11:34:05;;;;;;;15.43;13.20;;;;;;;;;;4981659;28;20034;-75
2021/12/09 11:36:49;;;;;;;17.08;14.40;;;;;;;;;;4984808;28;20035;-75
2021/12/09 11:39:26;;;;;;;15.88;13.68;;;;;;;;;;4983989;28;20041;-75
2021/12/09 11:41:53;;;;;;;14.77;13.20;;;;;;;;;;4985536;28;20128;-75
2021/12/09 11:44:19;;;;;;;13.00;11.90;;;;;;;;;;4992823;28;20034;-75
2021/12/09 11:46:47;;;;;;;13.93;12.73;;;;;;;;;;4977169;28;20049;-76
2021/12/09 11:49:13;;;;;;;14.10;12.70;;;;;;;;;;4969824;28;20478;-74
2021/12/09 11:51:40;;;;;;;15.35;13.75;;;;;;;;;;4984767;28;20513;-75
2021/12/09 11:54:07;;;;;;;24.02;15.25;;;;;;;;;;4978313;28;20220;-75
2021/12/09 12:11:25;;;;;;;19.55;13.68;;;;;;;;;;4962791;28;20221;-75
2021/12/09 12:13:56;;;;;;;14.93;13.45;;;;;;;;;;4974299;28;20045;-74
2021/12/09 12:19:14;;;;;;;13.93;12.63;;;;;;;;;;4979440;28;20410;-75
2021/12/09 12:21:54;;;;;;;12.38;11.35;;;;;;;;;;4982215;28;20081;-75
2021/12/09 12:27:44;;;;;;;12.98;11.90;;;;;;;;;;4989167;28;20046;-74
2021/12/09 12:35:56;;;;;;;13.88;11.55;;;;;;;;;;4987846;28;20034;-74
2021/12/09 12:41:16;;;;;;;14.18;12.15;;;;;;;;;;4980951;28;20070;-75
2021/12/09 12:43:59;;;;;;;13.73;12.43;;;;;;;;;;4991403;28;20066;-74
2021/12/09 12:49:38;;;;;;;12.48;11.38;;;;;;;;;;4951234;28;20467;-74
2021/12/09 12:52:10;;;;;;;12.25;10.88;;;;;;;;;;4957154;28;20035;-74
2021/12/09 12:57:34;;;;;;;12.80;11.57;;;;;;;;;;4974642;28;20034;-74
2021/12/09 13:00:07;;;;;;;12.32;11.20;;;;;;;;;;4958002;28;20042;-74
2021/12/09 13:03:14;;;;;;;12.68;11.57;;;;;;;;;;4930205;29;20151;-75
2021/12/09 13:06:11;;;;;;;12.60;11.55;;;;;;;;;;4929042;29;20061;-74
2021/12/09 13:09:11;;;;;;;11.82;10.93;;;;;;;;;;4929176;29;20086;-74
2021/12/09 13:11:49;;;;;;;11.88;10.80;;;;;;;;;;4936538;29;20099;-75
2021/12/09 13:14:25;;;;;;;12.05;11.00;;;;;;;;;;4913716;29;20059;-75
2021/12/09 13:17:02;;;;;;;12.65;11.48;;;;;;;;;;4929787;29;20039;-75
2021/12/09 13:19:37;;;;;;;12.88;11.60;;;;;;;;;;4931073;29;20039;-75
2021/12/09 13:22:34;;;;;;;12.40;10.85;;;;;;;;;;4928975;29;20123;-75
2021/12/09 13:25:22;;;;;;;13.43;11.65;;;;;;;;;;4931547;29;20047;-75
2021/12/09 13:36:16;;;;;;;13.05;11.77;;;;;;;;;;4944602;29;20138;-76
2021/12/09 13:47:10;;;;;;;12.60;11.38;;;;;;;;;;4987808;28;20085;-75
2021/12/09 13:55:20;;;;;;;13.30;12.02;;;;;;;;;;4984618;28;20034;-75
2021/12/09 13:57:53;;;;;;;12.52;11.43;;;;;;;;;;4974631;28;20084;-75
2021/12/09 14:00:24;;;;;;;13.73;11.45;;;;;;;;;;4986375;28;20045;-76
2021/12/09 14:02:59;;;;;;;12.20;11.20;;;;;;;;;;4984689;28;20409;-76
2021/12/09 14:05:26;;;;;;;11.52;10.70;;;;;;;;;;4958615;28;20105;-75
2021/12/09 14:08:04;;;;;;;12.85;11.52;;;;;;;;;;4984967;28;20504;-74
2021/12/09 14:10:33;;;;;;;13.27;12.13;;;;;;;;;;4974211;28;20094;-76
2021/12/09 14:13:04;;;;;;;15.02;13.50;;;;;;;;;;4973494;28;20046;-75
2021/12/09 14:15:58;;;;;;;22.58;14.55;;;;;;;;;;4985151;28;20039;-76
2021/12/09 14:18:32;;;;;;;15.13;13.75;;;;;;;;;;4964518;28;20118;-75
2021/12/09 14:21:00;;;;;;;20.42;14.15;;;;;;;;;;4966075;28;20038;-76
2021/12/09 14:23:26;;;;;;;17.30;13.57;;;;;;;;;;4974210;28;20038;-76
2021/12/09 14:25:52;;;;;;;15.38;12.73;;;;;;;;;;4985111;28;20099;-76
2021/12/09 14:28:18;;;;;;;17.20;13.77;;;;;;;;;;4980658;28;20038;-76
2021/12/09 14:30:47;;;;;;;18.48;13.73;;;;;;;;;;4974145;28;20535;-76
2021/12/09 14:33:13;;;;;;;18.88;14.00;;;;;;;;;;4974211;28;20050;-76
2021/12/09 14:35:46;;;;;;;17.40;13.98;;;;;;;;;;4987718;28;20096;-75
2021/12/09 14:38:14;;;;;;;15.30;13.80;;;;;;;;;;4976544;28;20050;-75
2021/12/09 14:40:44;;;;;;;22.80;14.20;;;;;;;;;;4976661;28;20046;-74
2021/12/09 14:43:14;;;;;;;14.65;13.32;;;;;;;;;;4968832;28;20045;-74
2021/12/09 14:45:58;;;;;;;15.20;13.57;;;;;;;;;;4979140;28;20062;-75
2021/12/09 14:48:42;;;;;;;15.48;13.90;;;;;;;;;;4957137;28;20040;-74
2021/12/09 14:51:21;;;;;;;20.88;14.80;;;;;;;;;;4977491;28;20117;-75
2021/12/09 14:53:49;;;;;;;18.02;14.80;;;;;;;;;;4980621;28;20054;-76
2021/12/09 14:56:27;;;;;;;15.60;13.48;;;;;;;;;;4973683;28;20505;-76
2021/12/09 14:59:14;;;;;;;16.45;14.48;;;;;;;;;;4961107;28;20397;-77
2021/12/09 15:01:41;;;;;;;21.73;15.50;;;;;;;;;;4982283;28;20508;-77
2021/12/09 15:04:14;;;;;;;18.85;14.25;;;;;;;;;;4978368;28;20042;-77
2021/12/09 15:06:43;;;;;;;16.40;14.70;;;;;;;;;;4986051;28;20039;-76
2021/12/09 15:09:15;;;;;;;16.52;14.73;;;;;;;;;;4991153;28;20168;-76
2021/12/09 15:11:52;;;;;;;14.82;13.25;;;;;;;;;;4989322;28;20045;-76
2021/12/09 15:14:35;;;;;;;15.32;13.57;;;;;;;;;;4992408;28;20037;-76
2021/12/09 15:17:21;;;;;;;15.45;13.02;;;;;;;;;;4986199;28;20476;-76
2021/12/09 15:20:12;;;;;;;19.88;14.43;;;;;;;;;;4988467;28;20042;-75
2021/12/09 15:22:38;;;;;;;17.02;12.38;;;;;;;;;;4975105;28;20399;-76
2021/12/09 15:25:08;;;;;;;13.20;11.80;;;;;;;;;;4970598;28;20037;-77
2021/12/09 15:27:49;;;;;;;12.77;11.48;;;;;;;;;;4991356;28;20121;-75
2021/12/09 15:30:16;;;;;;;15.02;12.07;;;;;;;;;;4982506;28;20041;-75
2021/12/09 15:33:20;;;;;;;12.63;11.52;;;;;;;;;;4979596;28;20042;-77
2021/12/09 15:36:00;;;;;;;17.10;12.18;;;;;;;;;;4968794;28;20046;-76